createdAt,value
2022-12-18T00:03:00.720Z,99349.50
2022-12-18T00:06:02.375Z,99348.41
2022-12-18T00:09:04.141Z,99351.91
2022-12-18T00:15:17.532Z,99367.41
2022-12-18T00:18:20.735Z,99382.31
2022-12-18T00:21:22.440Z,99384.13
2022-12-18T00:24:24.056Z,99380.25
2022-12-18T00:27:25.784Z,99382.38
2022-12-18T00:30:27.505Z,99379.06
2022-12-18T00:33:29.094Z,99372.78
2022-12-18T00:36:32.499Z,99379.38
2022-12-18T00:39:34.110Z,99375.22
2022-12-18T00:42:55.226Z,99365.81
2022-12-18T00:45:56.858Z,99357.34
2022-12-18T00:48:58.541Z,99353.72
2022-12-18T00:52:00.074Z,99357.34
2022-12-18T00:55:06.008Z,99360.81
2022-12-18T00:58:08.778Z,99363.06
2022-12-18T01:01:10.360Z,99348.81
2022-12-18T01:04:11.951Z,99345.75
2022-12-18T01:07:13.522Z,99340.00
2022-12-18T01:10:15.094Z,99339.47
2022-12-18T01:13:16.677Z,99346.41
2022-12-18T01:16:18.562Z,99347.81
2022-12-18T01:19:20.151Z,99346.66
2022-12-18T01:22:21.725Z,99348.03
2022-12-18T01:25:23.256Z,99343.22
2022-12-18T01:28:24.760Z,99359.19
2022-12-18T01:31:30.887Z,99349.75
2022-12-18T01:34:32.451Z,99353.22
2022-12-18T01:37:33.996Z,99365.22
2022-12-18T01:40:35.592Z,99374.13
2022-12-18T01:43:54.756Z,99385.72
2022-12-18T01:46:56.318Z,99384.78
2022-12-18T01:49:58.734Z,99383.84
2022-12-18T01:53:08.940Z,99385.56
2022-12-18T01:56:13.656Z,99388.38
2022-12-18T01:59:15.231Z,99378.03
2022-12-18T02:02:17.219Z,99386.03
2022-12-18T02:05:42.444Z,99396.16
2022-12-18T02:08:59.559Z,99383.25
2022-12-18T02:12:06.429Z,99379.91
2022-12-18T02:15:16.076Z,99368.25
2022-12-18T02:18:23.654Z,99373.72
2022-12-18T02:21:57.322Z,99375.41
2022-12-18T02:25:21.002Z,99375.19
2022-12-18T02:28:31.587Z,99375.94
2022-12-18T02:31:36.858Z,99378.13
2022-12-18T02:34:39.431Z,99377.53
2022-12-18T02:37:40.982Z,99395.53
2022-12-18T02:40:42.478Z,99395.19
2022-12-18T02:43:50.602Z,99394.19
2022-12-18T02:46:53.189Z,99392.06
2022-12-18T02:50:07.039Z,99388.66
2022-12-18T02:53:15.942Z,99393.41
2022-12-18T02:56:22.820Z,99400.69
2022-12-18T02:59:50.711Z,99404.41
2022-12-18T03:03:07.847Z,99405.44
2022-12-18T03:06:11.811Z,99415.94
2022-12-18T03:09:22.248Z,99428.53
2022-12-18T03:12:35.719Z,99428.56
2022-12-18T03:15:43.483Z,99428.56
2022-12-18T03:18:59.704Z,99430.63
2022-12-18T03:22:02.197Z,99427.84
2022-12-18T03:25:06.119Z,99423.94
2022-12-18T03:28:09.454Z,99422.44
2022-12-18T03:31:11.299Z,99433.53
2022-12-18T03:34:15.748Z,99417.09
2022-12-18T03:37:17.287Z,99433.88
2022-12-18T03:40:18.793Z,99434.75
2022-12-18T03:43:33.901Z,99432.56
2022-12-18T03:47:19.885Z,99431.38
2022-12-18T03:50:31.060Z,99428.13
2022-12-18T03:53:47.165Z,99432.59
2022-12-18T03:56:52.269Z,99445.00
2022-12-18T03:59:56.805Z,99450.22
2022-12-18T04:02:58.439Z,99453.94
2022-12-18T04:05:59.937Z,99450.38
2022-12-18T04:09:01.835Z,99455.09
2022-12-18T04:12:03.544Z,99458.06
2022-12-18T04:15:06.153Z,99455.41
2022-12-18T04:18:08.678Z,99437.47
2022-12-18T04:21:10.911Z,99435.88
2022-12-18T04:24:12.446Z,99440.75
2022-12-18T04:27:16.034Z,99438.38
2022-12-18T04:30:17.561Z,99434.06
2022-12-18T04:33:19.115Z,99420.75
2022-12-18T04:36:20.621Z,99421.22
2022-12-18T04:39:22.129Z,99419.28
2022-12-18T04:42:23.653Z,99424.00
2022-12-18T04:45:25.177Z,99436.16
2022-12-18T04:48:26.726Z,99434.06
2022-12-18T04:51:28.228Z,99435.25
2022-12-18T04:54:29.768Z,99436.91
2022-12-18T04:57:31.296Z,99441.63
2022-12-18T05:00:32.798Z,99439.09
2022-12-18T05:03:34.430Z,99440.16
2022-12-18T05:06:35.986Z,99445.31
2022-12-18T05:09:37.478Z,99453.16
2022-12-18T05:12:58.967Z,99448.56
2022-12-18T05:16:03.284Z,99450.44
2022-12-18T05:19:04.867Z,99444.97
2022-12-18T05:22:06.409Z,99436.97
2022-12-18T05:25:08.287Z,99446.72
2022-12-18T05:28:09.848Z,99447.31
2022-12-18T05:31:11.478Z,99450.28
2022-12-18T05:34:13.061Z,99450.28
2022-12-18T05:37:15.200Z,99457.50
2022-12-18T05:40:16.807Z,99454.88
2022-12-18T05:43:21.439Z,99455.09
2022-12-18T05:46:23.314Z,99461.28
2022-12-18T05:49:24.913Z,99461.91
2022-12-18T05:52:26.439Z,99466.47
2022-12-18T05:55:27.942Z,99470.28
2022-12-18T05:58:29.503Z,99472.81
2022-12-18T06:01:31.064Z,99471.72
2022-12-18T06:04:32.700Z,99477.09
2022-12-18T06:07:34.228Z,99481.97
2022-12-18T06:10:35.795Z,99498.34
2022-12-18T06:13:38.397Z,99506.88
2022-12-18T06:16:40.052Z,99518.09
2022-12-18T06:19:41.605Z,99521.75
2022-12-18T06:22:43.149Z,99530.59
2022-12-18T06:25:44.685Z,99535.47
2022-12-18T06:28:46.245Z,99546.97
2022-12-18T06:31:47.831Z,99542.06
2022-12-18T06:34:49.439Z,99553.28
2022-12-18T06:37:50.959Z,99555.34
2022-12-18T06:40:52.652Z,99556.81
2022-12-18T06:43:58.255Z,99553.09
2022-12-18T06:47:01.413Z,99567.13
2022-12-18T06:50:03.433Z,99565.16
2022-12-18T06:53:04.985Z,99563.69
2022-12-18T06:56:10.707Z,99566.94
2022-12-18T06:59:13.800Z,99576.09
2022-12-18T07:02:15.503Z,99569.53
2022-12-18T07:05:17.149Z,99561.28
2022-12-18T07:08:18.675Z,99562.47
2022-12-18T07:11:20.377Z,99560.38
2022-12-18T07:14:22.939Z,99557.59
2022-12-18T07:17:24.494Z,99562.78
2022-12-18T07:20:26.026Z,99556.38
2022-12-18T07:23:27.771Z,99552.09
2022-12-18T07:26:29.305Z,99552.09
2022-12-18T07:29:30.894Z,99547.41
2022-12-18T07:32:32.438Z,99552.56
2022-12-18T07:35:34.544Z,99560.25
2022-12-18T07:38:36.280Z,99567.19
2022-12-18T07:41:40.220Z,99575.69
2022-12-18T07:44:43.966Z,99575.53
2022-12-18T07:47:45.519Z,99577.53
2022-12-18T07:50:47.052Z,99579.50
2022-12-18T07:53:52.165Z,99585.31
2022-12-18T07:56:54.117Z,99592.84
2022-12-18T07:59:55.645Z,99598.09
2022-12-18T08:02:57.451Z,99609.22
2022-12-18T08:06:02.657Z,99613.66
2022-12-18T08:09:04.203Z,99609.69
2022-12-18T08:12:06.184Z,99605.97
2022-12-18T08:15:07.964Z,99616.50
2022-12-18T08:18:14.056Z,99606.44
2022-12-18T08:21:18.005Z,99615.94
2022-12-18T08:24:19.550Z,99608.56
2022-12-18T08:27:29.256Z,99606.38
2022-12-18T08:30:31.206Z,99604.81
2022-12-18T08:33:32.802Z,99594.25
2022-12-18T08:36:34.358Z,99589.56
2022-12-18T08:39:35.895Z,99581.91
2022-12-18T08:42:55.887Z,99570.88
2022-12-18T08:45:57.682Z,99571.91
2022-12-18T08:48:59.337Z,99555.31
2022-12-18T08:52:00.872Z,99559.13
2022-12-18T08:55:02.418Z,99543.91
2022-12-18T08:58:04.018Z,99540.69
2022-12-18T09:01:07.079Z,99543.84
2022-12-18T09:04:09.305Z,99537.94
2022-12-18T09:07:10.889Z,99545.09
2022-12-18T09:10:12.415Z,99554.22
2022-12-18T09:13:14.236Z,99557.13
2022-12-18T09:16:15.888Z,99571.06
2022-12-18T09:19:17.675Z,99588.34
2022-12-18T09:22:19.238Z,99603.00
2022-12-18T09:25:20.744Z,99616.63
2022-12-18T09:28:22.293Z,99626.09
2022-12-18T09:31:24.443Z,99631.63
2022-12-18T09:34:25.979Z,99627.03
2022-12-18T09:37:27.553Z,99628.44
2022-12-18T09:40:31.247Z,99636.97
2022-12-18T09:43:42.222Z,99636.63
2022-12-18T09:47:11.318Z,99640.34
2022-12-18T09:50:30.595Z,99660.19
2022-12-18T09:53:33.887Z,99664.22
2022-12-18T09:56:41.315Z,99667.44
2022-12-18T09:59:42.907Z,99675.66
2022-12-18T10:02:44.532Z,99683.19
2022-12-18T10:06:07.910Z,99684.97
2022-12-18T10:09:24.974Z,99680.75
2022-12-18T10:12:37.971Z,99686.00
2022-12-18T10:15:41.610Z,99680.41
2022-12-18T10:19:03.633Z,99673.81
2022-12-18T10:22:39.131Z,99668.81
2022-12-18T10:25:55.864Z,99654.81
2022-12-18T10:29:02.213Z,99649.50
2022-12-18T10:32:08.181Z,99640.19
2022-12-18T10:35:12.902Z,99638.84
2022-12-18T10:38:17.364Z,99628.38
2022-12-18T10:41:19.525Z,99621.44
2022-12-18T10:44:23.758Z,99614.56
2022-12-18T10:47:25.366Z,99625.84
2022-12-18T10:51:09.732Z,99617.78
2022-12-18T10:54:00.917Z,99616.25
2022-12-18T10:57:16.359Z,99620.59
2022-12-18T11:00:24.542Z,99613.81
2022-12-18T11:03:36.535Z,99607.41
2022-12-18T11:07:04.002Z,99610.00
2022-12-18T11:10:06.123Z,99604.66
2022-12-18T11:13:11.619Z,99606.91
2022-12-18T11:16:20.043Z,99604.06
2022-12-18T11:19:35.613Z,99600.63
2022-12-18T11:22:37.423Z,99608.38
2022-12-18T11:25:39.293Z,99603.63
2022-12-18T11:29:05.553Z,99593.59
2022-12-18T11:32:16.042Z,99602.41
2022-12-18T11:35:56.491Z,99605.53
2022-12-18T11:38:58.032Z,99597.94
2022-12-18T11:42:11.122Z,99610.19
2022-12-18T11:45:12.792Z,99599.34
2022-12-18T11:48:16.242Z,99584.25
2022-12-18T11:51:28.726Z,99585.28
2022-12-18T11:54:30.277Z,99572.00
2022-12-18T11:57:50.471Z,99571.88
2022-12-18T12:01:30.544Z,99560.69
2022-12-18T12:04:44.243Z,99551.50
2022-12-18T12:08:32.014Z,99556.28
2022-12-18T12:11:33.966Z,99555.63
2022-12-18T12:14:42.336Z,99540.09
2022-12-18T12:17:50.363Z,99548.81
2022-12-18T12:20:58.071Z,99549.53
2022-12-18T12:24:02.371Z,99553.97
2022-12-18T12:27:21.688Z,99553.75
2022-12-18T12:30:48.566Z,99546.66
2022-12-18T12:34:12.238Z,99548.19
2022-12-18T12:37:45.840Z,99560.81
2022-12-18T12:40:55.272Z,99555.25
2022-12-18T12:43:59.668Z,99560.69
2022-12-18T12:47:01.921Z,99564.34
2022-12-18T12:50:05.318Z,99551.94
2022-12-18T12:53:10.925Z,99556.59
2022-12-18T12:56:14.908Z,99546.75
2022-12-18T12:59:25.717Z,99536.44
2022-12-18T13:02:49.621Z,99537.47
2022-12-18T13:05:52.325Z,99528.09
2022-12-18T13:08:56.338Z,99526.28
2022-12-18T13:12:22.672Z,99520.53
2022-12-18T13:19:00.455Z,99519.41
2022-12-18T13:22:02.023Z,99511.69
2022-12-18T13:25:04.334Z,99511.78
2022-12-18T13:28:36.261Z,99512.56
2022-12-18T13:31:40.820Z,99505.09
2022-12-18T13:34:43.250Z,99507.41
2022-12-18T13:37:45.396Z,99491.53
2022-12-18T13:40:46.855Z,99489.53
2022-12-18T13:43:59.086Z,99495.22
2022-12-18T13:47:02.990Z,99490.44
2022-12-18T13:50:21.240Z,99483.88
2022-12-18T13:53:35.551Z,99478.41
2022-12-18T13:56:44.387Z,99476.19
2022-12-18T13:59:45.962Z,99482.94
2022-12-18T14:02:48.322Z,99475.44
2022-12-18T14:06:08.658Z,99479.94
2022-12-18T14:09:22.804Z,99460.94
2022-12-18T14:12:52.804Z,99463.81
2022-12-18T14:15:54.349Z,99464.63
2022-12-18T14:19:06.072Z,99475.84
2022-12-18T14:22:18.823Z,99464.75
2022-12-18T14:25:27.277Z,99471.50
2022-12-18T14:28:28.853Z,99472.13
2022-12-18T14:31:31.352Z,99477.22
2022-12-18T14:34:33.008Z,99467.56
2022-12-18T14:37:34.547Z,99467.44
2022-12-18T14:40:36.124Z,99469.16
2022-12-18T14:43:39.188Z,99472.91
2022-12-18T14:46:41.056Z,99464.53
2022-12-18T14:49:43.244Z,99453.91
2022-12-18T14:52:44.771Z,99455.56
2022-12-18T14:55:47.818Z,99444.50
2022-12-18T14:59:24.204Z,99438.53
2022-12-18T15:02:27.865Z,99445.63
2022-12-18T15:05:30.641Z,99429.38
2022-12-18T15:08:36.425Z,99424.72
2022-12-18T15:11:40.910Z,99436.97
2022-12-18T15:14:42.610Z,99431.56
2022-12-18T15:17:44.156Z,99432.44
2022-12-18T15:20:51.525Z,99439.63
2022-12-18T15:23:53.340Z,99440.59
2022-12-18T15:26:55.138Z,99441.72
2022-12-18T15:30:08.988Z,99435.66
2022-12-18T15:33:32.941Z,99433.31
2022-12-18T15:36:37.482Z,99437.81
2022-12-18T15:39:39.029Z,99445.66
2022-12-18T15:42:59.091Z,99444.78
2022-12-18T15:46:02.362Z,99442.78
2022-12-18T15:49:03.921Z,99439.16
2022-12-18T15:52:05.432Z,99443.31
2022-12-18T15:55:39.181Z,99446.63
2022-12-18T15:58:41.980Z,99442.34
2022-12-18T16:01:45.451Z,99431.28
2022-12-18T16:04:47.046Z,99432.06
2022-12-18T16:07:48.592Z,99440.78
2022-12-18T16:10:50.097Z,99426.63
2022-12-18T16:13:51.853Z,99425.97
2022-12-18T16:16:54.843Z,99420.34
2022-12-18T16:19:56.417Z,99423.34
2022-12-18T16:22:57.945Z,99410.25
2022-12-18T16:25:59.529Z,99413.50
2022-12-18T16:29:01.040Z,99412.47
2022-12-18T16:32:02.549Z,99410.25
2022-12-18T16:35:04.475Z,99408.84
2022-12-18T16:38:05.996Z,99397.34
2022-12-18T16:41:34.758Z,99397.03
2022-12-18T16:44:36.498Z,99399.72
2022-12-18T16:47:38.935Z,99393.28
2022-12-18T16:50:40.451Z,99391.09
2022-12-18T16:53:42.287Z,99379.47
2022-12-18T16:56:44.077Z,99380.34
2022-12-18T16:59:45.819Z,99374.72
2022-12-18T17:02:48.467Z,99364.97
2022-12-18T17:05:53.065Z,99359.00
2022-12-18T17:08:56.422Z,99363.44
2022-12-18T17:11:57.985Z,99360.44
2022-12-18T17:14:59.512Z,99354.00
2022-12-18T17:18:01.084Z,99353.44
2022-12-18T17:21:03.259Z,99356.53
2022-12-18T17:24:05.245Z,99346.59
2022-12-18T17:27:07.367Z,99353.34
2022-12-18T17:30:09.747Z,99349.13
2022-12-18T17:33:14.236Z,99347.56
2022-12-18T17:36:17.103Z,99343.59
2022-12-18T17:39:19.618Z,99342.16
2022-12-18T17:42:21.137Z,99346.22
2022-12-18T17:45:22.681Z,99342.47
2022-12-18T17:48:24.334Z,99339.59
2022-12-18T17:51:26.010Z,99339.03
2022-12-18T17:54:27.541Z,99338.41
2022-12-18T17:57:29.087Z,99335.63
2022-12-18T18:00:30.736Z,99331.75
2022-12-18T18:03:33.372Z,99335.06
2022-12-18T18:06:34.966Z,99332.84
2022-12-18T18:09:40.755Z,99333.06
2022-12-18T18:13:00.918Z,99329.75
2022-12-18T18:16:03.672Z,99337.38
2022-12-18T18:19:05.822Z,99334.19
2022-12-18T18:22:07.567Z,99331.06
2022-12-18T18:25:09.646Z,99330.28
2022-12-18T18:28:11.889Z,99332.13
2022-12-18T18:31:13.619Z,99320.88
2022-12-18T18:34:19.106Z,99329.84
2022-12-18T18:37:20.623Z,99328.84
2022-12-18T18:40:22.200Z,99325.75
2022-12-18T18:43:23.777Z,99325.97
2022-12-18T18:46:25.322Z,99329.59
2022-12-18T18:49:27.664Z,99324.50
2022-12-18T18:52:29.525Z,99312.56
2022-12-18T18:55:33.372Z,99306.59
2022-12-18T18:58:35.006Z,99306.59
2022-12-18T19:01:36.864Z,99306.03
2022-12-18T19:04:44.718Z,99288.22
2022-12-18T19:07:48.127Z,99286.78
2022-12-18T19:10:57.645Z,99275.16
2022-12-18T19:13:59.609Z,99270.47
2022-12-18T19:17:01.252Z,99265.50
2022-12-18T19:20:04.480Z,99272.44
2022-12-18T19:23:06.043Z,99257.28
2022-12-18T19:29:29.317Z,99251.19
2022-12-18T19:32:31.483Z,99243.00
2022-12-18T19:35:33.078Z,99239.97
2022-12-18T19:38:35.065Z,99235.34
2022-12-18T19:41:36.779Z,99232.94
2022-12-18T19:44:39.138Z,99238.34
2022-12-18T19:47:40.779Z,99241.75
2022-12-18T19:50:42.377Z,99242.56
2022-12-18T19:53:44.162Z,99245.84
2022-12-18T19:56:45.891Z,99239.22
2022-12-18T19:59:47.401Z,99248.41
2022-12-18T20:02:50.917Z,99238.50
2022-12-18T20:05:52.527Z,99235.31
2022-12-18T20:08:57.980Z,99246.28
2022-12-18T20:12:03.129Z,99236.09
2022-12-18T20:15:05.061Z,99230.00
2022-12-18T20:18:06.715Z,99249.94
2022-12-18T20:21:13.755Z,99259.81
2022-12-18T20:24:15.585Z,99266.84
2022-12-18T20:27:19.499Z,99263.91
2022-12-18T20:30:21.232Z,99260.16
2022-12-18T20:33:22.749Z,99251.53
2022-12-18T20:36:24.731Z,99257.94
2022-12-18T20:39:28.733Z,99253.72
2022-12-18T20:42:30.832Z,99256.25
2022-12-18T20:45:32.568Z,99261.25
2022-12-18T20:48:34.148Z,99270.75
2022-12-18T20:51:35.763Z,99263.81
2022-12-18T20:54:37.369Z,99259.91
2022-12-18T20:57:39.167Z,99248.25
2022-12-18T21:00:40.732Z,99248.56
2022-12-18T21:03:43.223Z,99224.06
2022-12-18T21:06:49.625Z,99218.38
2022-12-18T21:09:54.264Z,99218.50
2022-12-18T21:13:03.022Z,99225.66
2022-12-18T21:16:07.528Z,99219.09
2022-12-18T21:19:12.904Z,99227.13
2022-12-18T21:22:14.572Z,99222.13
2022-12-18T21:25:16.330Z,99219.56
2022-12-18T21:28:17.884Z,99223.34
2022-12-18T21:31:19.890Z,99227.72
2022-12-18T21:34:28.931Z,99223.41
2022-12-18T21:37:30.480Z,99218.69
2022-12-18T21:40:32.040Z,99202.66
2022-12-18T21:43:52.621Z,99205.78
2022-12-18T21:46:59.799Z,99204.41
2022-12-18T21:50:05.539Z,99211.19
2022-12-18T21:53:07.134Z,99218.25
2022-12-18T21:56:08.735Z,99219.31
2022-12-18T21:59:16.792Z,99226.84
2022-12-18T22:02:20.305Z,99231.94
2022-12-18T22:05:22.301Z,99230.50
2022-12-18T22:08:23.840Z,99228.44
2022-12-18T22:11:25.604Z,99230.28
2022-12-18T22:14:27.175Z,99237.25
2022-12-18T22:17:28.909Z,99233.81
2022-12-18T22:20:30.919Z,99230.59
2022-12-18T22:23:32.558Z,99242.78
2022-12-18T22:26:39.759Z,99242.84
2022-12-18T22:30:00.323Z,99243.66
2022-12-18T22:33:01.855Z,99246.28
2022-12-18T22:36:07.166Z,99244.81
2022-12-18T22:39:13.745Z,99251.09
2022-12-18T22:42:15.343Z,99253.06
2022-12-18T22:45:16.915Z,99246.94
2022-12-18T22:48:18.486Z,99256.56
2022-12-18T22:51:20.776Z,99257.28
2022-12-18T22:54:22.955Z,99238.81
2022-12-18T22:57:24.725Z,99251.16
2022-12-18T23:00:26.484Z,99244.41
2022-12-18T23:03:28.054Z,99241.75
2022-12-18T23:06:29.627Z,99240.19
2022-12-18T23:09:31.192Z,99245.09
2022-12-18T23:12:32.794Z,99243.03
2022-12-18T23:15:41.970Z,99243.72
2022-12-18T23:18:43.697Z,99231.75
2022-12-18T23:21:45.227Z,99226.72
2022-12-18T23:24:47.186Z,99224.56
2022-12-18T23:27:48.729Z,99214.38
2022-12-18T23:30:50.325Z,99217.19
2022-12-18T23:33:52.179Z,99227.63
2022-12-18T23:36:56.239Z,99212.66
2022-12-18T23:39:57.854Z,99210.19
2022-12-18T23:42:59.676Z,99210.38
2022-12-18T23:46:01.264Z,99202.81
2022-12-18T23:49:03.985Z,99196.03
2022-12-18T23:52:08.092Z,99204.97
2022-12-18T23:55:09.807Z,99199.84
2022-12-18T23:58:19.390Z,99193.34
